sensor_id;sensor_type;location;lat;lon;timestamp;pressure;altitude;pressure_sealevel;temperature;humidity
59043;BME280;44826;51.596;5.624;2023-05-25T00:00:36;102455.44;;;10.35;75.02
59043;BME280;44826;51.596;5.624;2023-05-25T00:03:02;102460.66;;;10.33;74.57
59043;BME280;44826;51.596;5.624;2023-05-25T00:05:28;102457.19;;;10.31;74.73
59043;BME280;44826;51.596;5.624;2023-05-25T00:07:53;102451.13;;;10.29;74.79
59043;BME280;44826;51.596;5.624;2023-05-25T00:10:20;102454.59;;;10.26;74.85
59043;BME280;44826;51.596;5.624;2023-05-25T00:12:45;102451.09;;;10.26;74.72
59043;BME280;44826;51.596;5.624;2023-05-25T00:15:10;102451.13;;;10.23;74.76
59043;BME280;44826;51.596;5.624;2023-05-25T00:17:35;102458.91;;;10.21;74.65
59043;BME280;44826;51.596;5.624;2023-05-25T00:20:01;102465.00;;;10.22;74.71
59043;BME280;44826;51.596;5.624;2023-05-25T00:22:31;102458.91;;;10.18;74.86
59043;BME280;44826;51.596;5.624;2023-05-25T00:24:58;102458.91;;;10.15;75.42
59043;BME280;44826;51.596;5.624;2023-05-25T00:27:23;102462.34;;;10.12;75.81
59043;BME280;44826;51.596;5.624;2023-05-25T00:29:49;102465.81;;;10.10;75.31
59043;BME280;44826;51.596;5.624;2023-05-25T00:32:14;102466.69;;;10.07;75.34
59043;BME280;44826;51.596;5.624;2023-05-25T00:34:40;102457.16;;;10.03;75.67
59043;BME280;44826;51.596;5.624;2023-05-25T00:37:05;102464.06;;;10.01;75.72
59043;BME280;44826;51.596;5.624;2023-05-25T00:39:31;102459.72;;;10.00;75.59
59043;BME280;44826;51.596;5.624;2023-05-25T00:41:56;102461.47;;;9.98;76.03
59043;BME280;44826;51.596;5.624;2023-05-25T00:44:23;102457.97;;;9.96;75.83
59043;BME280;44826;51.596;5.624;2023-05-25T00:46:50;102454.53;;;9.97;75.70
59043;BME280;44826;51.596;5.624;2023-05-25T00:49:17;102457.97;;;9.96;75.80
59043;BME280;44826;51.596;5.624;2023-05-25T00:51:43;102462.31;;;9.94;75.98
59043;BME280;44826;51.596;5.624;2023-05-25T00:54:14;102461.44;;;9.92;76.06
59043;BME280;44826;51.596;5.624;2023-05-25T00:56:43;102458.81;;;9.92;75.80
59043;BME280;44826;51.596;5.624;2023-05-25T00:59:15;102467.50;;;9.91;75.73
59043;BME280;44826;51.596;5.624;2023-05-25T01:01:43;102460.53;;;9.85;76.22
59043;BME280;44826;51.596;5.624;2023-05-25T01:04:12;102464.00;;;9.84;76.29
59043;BME280;44826;51.596;5.624;2023-05-25T01:06:42;102466.59;;;9.82;76.26
59043;BME280;44826;51.596;5.624;2023-05-25T01:09:11;102466.59;;;9.82;76.29
59043;BME280;44826;51.596;5.624;2023-05-25T01:11:41;102473.53;;;9.80;76.39
59043;BME280;44826;51.596;5.624;2023-05-25T01:14:08;102464.84;;;9.78;76.52
59043;BME280;44826;51.596;5.624;2023-05-25T01:16:35;102463.97;;;9.76;76.46
59043;BME280;44826;51.596;5.624;2023-05-25T01:19:02;102470.91;;;9.74;76.43
59043;BME280;44826;51.596;5.624;2023-05-25T01:21:36;102460.50;;;9.72;75.92
59043;BME280;44826;51.596;5.624;2023-05-25T01:24:14;102477.81;;;9.70;76.48
59043;BME280;44826;51.596;5.624;2023-05-25T01:26:45;102479.53;;;9.67;76.59
59043;BME280;44826;51.596;5.624;2023-05-25T01:29:13;102476.06;;;9.63;76.40
59043;BME280;44826;51.596;5.624;2023-05-25T01:31:39;102483.84;;;9.60;76.57
59043;BME280;44826;51.596;5.624;2023-05-25T01:34:05;102489.03;;;9.55;76.34
59043;BME280;44826;51.596;5.624;2023-05-25T01:36:31;102492.47;;;9.51;75.88
59043;BME280;44826;51.596;5.624;2023-05-25T01:38:57;102497.63;;;9.45;76.99
59043;BME280;44826;51.596;5.624;2023-05-25T01:41:23;102491.53;;;9.41;76.89
59043;BME280;44826;51.596;5.624;2023-05-25T01:43:48;102495.84;;;9.38;77.19
59043;BME280;44826;51.596;5.624;2023-05-25T01:46:24;102496.69;;;9.35;76.91
59043;BME280;44826;51.596;5.624;2023-05-25T01:49:05;102500.16;;;9.34;76.91
59043;BME280;44826;51.596;5.624;2023-05-25T01:54:20;102495.81;;;9.32;77.06
59043;BME280;44826;51.596;5.624;2023-05-25T01:56:48;102495.75;;;9.25;77.78
59043;BME280;44826;51.596;5.624;2023-05-25T01:59:19;102496.66;;;9.26;78.02
59043;BME280;44826;51.596;5.624;2023-05-25T02:01:44;102494.88;;;9.22;77.89
59043;BME280;44826;51.596;5.624;2023-05-25T02:04:11;102503.53;;;9.19;77.73
59043;BME280;44826;51.596;5.624;2023-05-25T02:06:37;102499.19;;;9.18;77.98
59043;BME280;44826;51.596;5.624;2023-05-25T02:09:02;102486.22;;;9.20;77.84
59043;BME280;44826;51.596;5.624;2023-05-25T02:11:28;102497.44;;;9.17;78.02
59043;BME280;44826;51.596;5.624;2023-05-25T02:13:53;102493.97;;;9.15;77.87
59043;BME280;44826;51.596;5.624;2023-05-25T02:16:19;102494.81;;;9.14;78.23
59043;BME280;44826;51.596;5.624;2023-05-25T02:18:44;102495.69;;;9.13;78.29
59043;BME280;44826;51.596;5.624;2023-05-25T02:21:10;102499.13;;;9.12;78.17
59043;BME280;44826;51.596;5.624;2023-05-25T02:23:35;102500.00;;;9.11;77.38
59043;BME280;44826;51.596;5.624;2023-05-25T02:26:01;102500.81;;;9.07;77.66
59043;BME280;44826;51.596;5.624;2023-05-25T02:28:26;102499.09;;;9.03;77.84
59043;BME280;44826;51.596;5.624;2023-05-25T02:30:51;102498.16;;;8.99;77.84
59043;BME280;44826;51.596;5.624;2023-05-25T02:33:16;102491.25;;;8.95;77.71
59043;BME280;44826;51.596;5.624;2023-05-25T02:35:43;102490.28;;;8.88;77.70
59043;BME280;44826;51.596;5.624;2023-05-25T02:38:08;102492.91;;;8.85;78.80
59043;BME280;44826;51.596;5.624;2023-05-25T02:40:33;102492.00;;;8.85;78.91
59043;BME280;44826;51.596;5.624;2023-05-25T02:42:59;102492.03;;;8.86;79.37
59043;BME280;44826;51.596;5.624;2023-05-25T02:45:24;102492.91;;;8.85;79.26
59043;BME280;44826;51.596;5.624;2023-05-25T02:47:50;102497.19;;;8.83;79.63
59043;BME280;44826;51.596;5.624;2023-05-25T02:50:15;102498.09;;;8.87;79.04
59043;BME280;44826;51.596;5.624;2023-05-25T02:52:40;102489.41;;;8.85;78.89
59043;BME280;44826;51.596;5.624;2023-05-25T02:55:06;102494.59;;;8.85;78.71
59043;BME280;44826;51.596;5.624;2023-05-25T02:57:34;102498.91;;;8.81;78.76
59043;BME280;44826;51.596;5.624;2023-05-25T03:00:01;102500.59;;;8.76;78.74
59043;BME280;44826;51.596;5.624;2023-05-25T03:02:26;102492.78;;;8.70;78.59
59043;BME280;44826;51.596;5.624;2023-05-25T03:04:53;102491.88;;;8.68;78.57
59043;BME280;44826;51.596;5.624;2023-05-25T03:07:18;102502.22;;;8.64;79.02
59043;BME280;44826;51.596;5.624;2023-05-25T03:09:45;102505.72;;;8.67;79.43
59043;BME280;44826;51.596;5.624;2023-05-25T03:12:10;102504.81;;;8.66;78.89
59043;BME280;44826;51.596;5.624;2023-05-25T03:14:35;102504.78;;;8.63;79.16
59043;BME280;44826;51.596;5.624;2023-05-25T03:17:00;102509.97;;;8.60;79.15
59043;BME280;44826;51.596;5.624;2023-05-25T03:19:25;102512.53;;;8.58;79.35
59043;BME280;44826;51.596;5.624;2023-05-25T03:21:51;102520.31;;;8.58;79.60
59043;BME280;44826;51.596;5.624;2023-05-25T03:24:16;102517.72;;;8.58;79.59
59043;BME280;44826;51.596;5.624;2023-05-25T03:26:41;102521.16;;;8.57;79.73
59043;BME280;44826;51.596;5.624;2023-05-25T03:29:06;102523.72;;;8.53;80.11
59043;BME280;44826;51.596;5.624;2023-05-25T03:31:32;102523.69;;;8.49;80.43
59043;BME280;44826;51.596;5.624;2023-05-25T03:33:57;102532.34;;;8.50;79.95
59043;BME280;44826;51.596;5.624;2023-05-25T03:36:22;102526.28;;;8.48;80.15
59043;BME280;44826;51.596;5.624;2023-05-25T03:38:51;102535.72;;;8.47;80.08
59043;BME280;44826;51.596;5.624;2023-05-25T03:41:17;102538.41;;;8.49;80.03
59043;BME280;44826;51.596;5.624;2023-05-25T03:43:42;102545.31;;;8.50;80.10
59043;BME280;44826;51.596;5.624;2023-05-25T03:46:07;102549.63;;;8.49;80.00
59043;BME280;44826;51.596;5.624;2023-05-25T03:48:35;102543.59;;;8.49;80.73
59043;BME280;44826;51.596;5.624;2023-05-25T03:51:00;102546.19;;;8.49;80.64
59043;BME280;44826;51.596;5.624;2023-05-25T03:53:26;102544.44;;;8.49;80.63
59043;BME280;44826;51.596;5.624;2023-05-25T03:55:51;102545.25;;;8.47;81.02
59043;BME280;44826;51.596;5.624;2023-05-25T03:58:16;102550.44;;;8.47;80.69
59043;BME280;44826;51.596;5.624;2023-05-25T04:00:42;102559.94;;;8.46;81.09
59043;BME280;44826;51.596;5.624;2023-05-25T04:03:07;102553.03;;;8.47;81.26
59043;BME280;44826;51.596;5.624;2023-05-25T04:05:34;102553.88;;;8.47;80.92
59043;BME280;44826;51.596;5.624;2023-05-25T04:08:01;102546.09;;;8.47;81.44
59043;BME280;44826;51.596;5.624;2023-05-25T04:10:27;102553.03;;;8.47;81.58
59043;BME280;44826;51.596;5.624;2023-05-25T04:12:52;102551.38;;;8.50;81.50
59043;BME280;44826;51.596;5.624;2023-05-25T04:15:20;102554.88;;;8.56;81.55
59043;BME280;44826;51.596;5.624;2023-05-25T04:17:46;102554.94;;;8.59;81.48
59043;BME280;44826;51.596;5.624;2023-05-25T04:20:11;102558.38;;;8.59;81.06
59043;BME280;44826;51.596;5.624;2023-05-25T04:22:36;102561.84;;;8.60;81.16
59043;BME280;44826;51.596;5.624;2023-05-25T04:25:05;102553.19;;;8.59;81.43
59043;BME280;44826;51.596;5.624;2023-05-25T04:27:32;102564.47;;;8.61;81.72
59043;BME280;44826;51.596;5.624;2023-05-25T04:29:57;102557.59;;;8.67;81.26
59043;BME280;44826;51.596;5.624;2023-05-25T04:32:22;102561.94;;;8.69;81.54
59043;BME280;44826;51.596;5.624;2023-05-25T04:34:48;102565.41;;;8.70;82.12
59043;BME280;44826;51.596;5.624;2023-05-25T04:37:13;102565.47;;;8.74;82.06
59043;BME280;44826;51.596;5.624;2023-05-25T04:39:38;102564.63;;;8.78;81.68
59043;BME280;44826;51.596;5.624;2023-05-25T04:42:04;102569.88;;;8.83;81.63
59043;BME280;44826;51.596;5.624;2023-05-25T04:44:30;102568.16;;;8.88;81.77
59043;BME280;44826;51.596;5.624;2023-05-25T04:46:56;102569.09;;;8.92;81.32
59043;BME280;44826;51.596;5.624;2023-05-25T04:49:21;102564.78;;;8.95;81.41
59043;BME280;44826;51.596;5.624;2023-05-25T04:51:47;102568.25;;;8.96;81.71
59043;BME280;44826;51.596;5.624;2023-05-25T04:54:12;102574.34;;;9.00;81.73
59043;BME280;44826;51.596;5.624;2023-05-25T04:56:37;102572.63;;;9.03;81.92
59043;BME280;44826;51.596;5.624;2023-05-25T04:59:02;102578.72;;;9.04;82.28
59043;BME280;44826;51.596;5.624;2023-05-25T05:01:29;102586.53;;;9.08;82.48
59043;BME280;44826;51.596;5.624;2023-05-25T05:03:54;102578.78;;;9.15;82.53
59043;BME280;44826;51.596;5.624;2023-05-25T05:06:20;102582.28;;;9.20;82.37
59043;BME280;44826;51.596;5.624;2023-05-25T05:08:46;102586.66;;;9.24;82.92
59043;BME280;44826;51.596;5.624;2023-05-25T05:11:11;102585.84;;;9.28;83.00
59043;BME280;44826;51.596;5.624;2023-05-25T05:13:36;102589.34;;;9.35;83.55
59043;BME280;44826;51.596;5.624;2023-05-25T05:16:01;102587.66;;;9.41;83.40
59043;BME280;44826;51.596;5.624;2023-05-25T05:18:27;102585.97;;;9.48;83.31
59043;BME280;44826;51.596;5.624;2023-05-25T05:20:53;102585.16;;;9.57;83.77
59043;BME280;44826;51.596;5.624;2023-05-25T05:23:18;102586.06;;;9.64;83.60
59043;BME280;44826;51.596;5.624;2023-05-25T05:25:43;102590.47;;;9.71;83.51
59043;BME280;44826;51.596;5.624;2023-05-25T05:28:10;102594.81;;;9.78;83.61
59043;BME280;44826;51.596;5.624;2023-05-25T05:30:35;102594.00;;;9.87;83.57
59043;BME280;44826;51.596;5.624;2023-05-25T05:33:01;102599.22;;;9.95;83.70
59043;BME280;44826;51.596;5.624;2023-05-25T05:35:26;102604.47;;;10.01;83.71
59043;BME280;44826;51.596;5.624;2023-05-25T05:37:51;102605.38;;;10.06;83.80
59043;BME280;44826;51.596;5.624;2023-05-25T05:40:16;102606.28;;;10.14;83.79
59043;BME280;44826;51.596;5.624;2023-05-25T05:42:42;102609.75;;;10.21;83.48
59043;BME280;44826;51.596;5.624;2023-05-25T05:45:08;102612.41;;;10.29;82.84
59043;BME280;44826;51.596;5.624;2023-05-25T05:47:33;102616.78;;;10.36;83.34
59043;BME280;44826;51.596;5.624;2023-05-25T05:49:58;102615.94;;;10.43;82.42
59043;BME280;44826;51.596;5.624;2023-05-25T05:52:24;102619.47;;;10.52;82.94
59043;BME280;44826;51.596;5.624;2023-05-25T05:54:49;102618.59;;;10.56;83.09
59043;BME280;44826;51.596;5.624;2023-05-25T05:57:14;102621.22;;;10.62;82.94
59043;BME280;44826;51.596;5.624;2023-05-25T05:59:40;102617.75;;;10.71;82.05
59043;BME280;44826;51.596;5.624;2023-05-25T06:02:06;102627.31;;;10.75;82.91
59043;BME280;44826;51.596;5.624;2023-05-25T06:04:31;102633.44;;;10.83;82.23
59043;BME280;44826;51.596;5.624;2023-05-25T06:06:57;102625.63;;;10.88;82.13
59043;BME280;44826;51.596;5.624;2023-05-25T06:09:23;102625.63;;;10.92;82.99
59043;BME280;44826;51.596;5.624;2023-05-25T06:11:48;102629.97;;;10.98;82.75
59043;BME280;44826;51.596;5.624;2023-05-25T06:14:13;102627.38;;;11.04;81.60
59043;BME280;44826;51.596;5.624;2023-05-25T06:16:39;102623.91;;;11.12;82.18
59043;BME280;44826;51.596;5.624;2023-05-25T06:19:04;102632.63;;;11.18;82.26
59043;BME280;44826;51.596;5.624;2023-05-25T06:21:30;102636.06;;;11.27;81.15
59043;BME280;44826;51.596;5.624;2023-05-25T06:23:55;102630.84;;;11.28;81.34
59043;BME280;44826;51.596;5.624;2023-05-25T06:26:23;102640.41;;;11.32;81.31
59043;BME280;44826;51.596;5.624;2023-05-25T06:28:49;102642.16;;;11.33;80.59
59043;BME280;44826;51.596;5.624;2023-05-25T06:31:15;102644.75;;;11.38;80.11
59043;BME280;44826;51.596;5.624;2023-05-25T06:33:40;102649.09;;;11.37;80.35
59043;BME280;44826;51.596;5.624;2023-05-25T06:36:06;102652.59;;;11.39;80.32
59043;BME280;44826;51.596;5.624;2023-05-25T06:38:31;102655.19;;;11.41;80.70
59043;BME280;44826;51.596;5.624;2023-05-25T06:40:57;102650.84;;;11.48;80.67
59043;BME280;44826;51.596;5.624;2023-05-25T06:43:27;102654.31;;;11.59;80.29
59043;BME280;44826;51.596;5.624;2023-05-25T06:45:52;102656.91;;;11.70;80.64
59043;BME280;44826;51.596;5.624;2023-05-25T06:48:17;102662.09;;;11.81;79.13
59043;BME280;44826;51.596;5.624;2023-05-25T06:50:43;102658.63;;;11.99;78.39
59043;BME280;44826;51.596;5.624;2023-05-25T06:53:10;102651.63;;;12.13;79.57
59043;BME280;44826;51.596;5.624;2023-05-25T06:55:35;102662.91;;;12.23;77.34
59043;BME280;44826;51.596;5.624;2023-05-25T06:58:00;102662.91;;;12.26;77.48
59043;BME280;44826;51.596;5.624;2023-05-25T07:00:26;102657.66;;;12.33;78.26
59043;BME280;44826;51.596;5.624;2023-05-25T07:02:51;102661.97;;;12.38;77.22
59043;BME280;44826;51.596;5.624;2023-05-25T07:05:16;102667.19;;;12.46;78.49
59043;BME280;44826;51.596;5.624;2023-05-25T07:07:41;102664.53;;;12.52;77.99
59043;BME280;44826;51.596;5.624;2023-05-25T07:10:07;102666.25;;;12.56;76.40
59043;BME280;44826;51.596;5.624;2023-05-25T07:12:33;102662.75;;;12.60;75.58
59043;BME280;44826;51.596;5.624;2023-05-25T07:14:58;102662.75;;;12.64;75.98
59043;BME280;44826;51.596;5.624;2023-05-25T07:17:23;102669.66;;;12.68;75.25
59043;BME280;44826;51.596;5.624;2023-05-25T07:19:48;102661.81;;;12.72;73.69
59043;BME280;44826;51.596;5.624;2023-05-25T07:22:14;102664.41;;;12.77;73.64
59043;BME280;44826;51.596;5.624;2023-05-25T07:24:43;102667.00;;;12.80;72.73
59043;BME280;44826;51.596;5.624;2023-05-25T07:27:09;102661.75;;;12.83;72.48
59043;BME280;44826;51.596;5.624;2023-05-25T07:29:34;102669.56;;;12.86;71.54
59043;BME280;44826;51.596;5.624;2023-05-25T07:31:59;102673.03;;;12.88;72.40
59043;BME280;44826;51.596;5.624;2023-05-25T07:34:24;102664.31;;;12.93;72.84
59043;BME280;44826;51.596;5.624;2023-05-25T07:36:50;102675.63;;;12.95;71.09
59043;BME280;44826;51.596;5.624;2023-05-25T07:39:15;102674.72;;;12.99;71.89
59043;BME280;44826;51.596;5.624;2023-05-25T07:41:40;102665.97;;;13.03;71.76
59043;BME280;44826;51.596;5.624;2023-05-25T07:44:05;102676.41;;;13.06;70.08
59043;BME280;44826;51.596;5.624;2023-05-25T07:46:31;102678.13;;;13.09;70.29
59043;BME280;44826;51.596;5.624;2023-05-25T07:48:56;102679.00;;;13.12;71.10
59043;BME280;44826;51.596;5.624;2023-05-25T07:51:23;102678.06;;;13.21;69.83
59043;BME280;44826;51.596;5.624;2023-05-25T07:53:51;102684.09;;;13.31;69.73
59043;BME280;44826;51.596;5.624;2023-05-25T07:56:18;102685.78;;;13.38;69.27
59043;BME280;44826;51.596;5.624;2023-05-25T07:58:43;102687.53;;;13.42;69.08
59043;BME280;44826;51.596;5.624;2023-05-25T08:01:08;102683.16;;;13.44;69.47
59043;BME280;44826;51.596;5.624;2023-05-25T08:03:34;102682.28;;;13.44;69.16
59043;BME280;44826;51.596;5.624;2023-05-25T08:05:59;102693.59;;;13.43;68.51
59043;BME280;44826;51.596;5.624;2023-05-25T08:08:25;102684.03;;;13.43;68.31
59043;BME280;44826;51.596;5.624;2023-05-25T08:10:50;102681.41;;;13.42;68.84
59043;BME280;44826;51.596;5.624;2023-05-25T08:13:15;102691.00;;;13.44;68.76
59043;BME280;44826;51.596;5.624;2023-05-25T08:15:40;102689.16;;;13.53;68.77
59043;BME280;44826;51.596;5.624;2023-05-25T08:18:06;102690.84;;;13.58;68.33
59043;BME280;44826;51.596;5.624;2023-05-25T08:20:31;102693.47;;;13.61;67.33
59043;BME280;44826;51.596;5.624;2023-05-25T08:22:56;102701.25;;;13.68;67.88
59043;BME280;44826;51.596;5.624;2023-05-25T08:25:23;102694.19;;;13.76;66.97
59043;BME280;44826;51.596;5.624;2023-05-25T08:27:48;102698.44;;;13.88;67.48
59043;BME280;44826;51.596;5.624;2023-05-25T08:30:14;102696.63;;;13.99;68.62
59043;BME280;44826;51.596;5.624;2023-05-25T08:32:39;102697.34;;;14.10;68.34
59043;BME280;44826;51.596;5.624;2023-05-25T08:35:05;102696.34;;;14.22;67.87
59043;BME280;44826;51.596;5.624;2023-05-25T08:37:30;102696.25;;;14.33;68.27
59043;BME280;44826;51.596;5.624;2023-05-25T08:39:56;102698.78;;;14.38;66.79
59043;BME280;44826;51.596;5.624;2023-05-25T08:42:21;102710.13;;;14.38;65.41
59043;BME280;44826;51.596;5.624;2023-05-25T08:44:48;102709.28;;;14.38;65.56
59043;BME280;44826;51.596;5.624;2023-05-25T08:47:15;102708.34;;;14.40;65.68
59043;BME280;44826;51.596;5.624;2023-05-25T08:49:43;102697.00;;;14.43;65.16
59043;BME280;44826;51.596;5.624;2023-05-25T08:52:13;102704.81;;;14.45;64.23
59043;BME280;44826;51.596;5.624;2023-05-25T08:54:42;102704.78;;;14.48;65.45
59043;BME280;44826;51.596;5.624;2023-05-25T08:59:45;102718.69;;;14.53;64.83
59043;BME280;44826;51.596;5.624;2023-05-25T09:02:34;102709.94;;;14.54;65.56
59043;BME280;44826;51.596;5.624;2023-05-25T09:05:03;102713.44;;;14.53;65.28
59043;BME280;44826;51.596;5.624;2023-05-25T09:07:29;102722.19;;;14.52;64.82
59043;BME280;44826;51.596;5.624;2023-05-25T09:09:55;102711.66;;;14.55;64.94
59043;BME280;44826;51.596;5.624;2023-05-25T09:12:21;102719.50;;;14.60;64.93
59043;BME280;44826;51.596;5.624;2023-05-25T09:14:47;102719.50;;;14.60;64.19
59043;BME280;44826;51.596;5.624;2023-05-25T09:17:16;102722.13;;;14.58;63.63
59043;BME280;44826;51.596;5.624;2023-05-25T09:19:42;102722.16;;;14.55;63.45
59043;BME280;44826;51.596;5.624;2023-05-25T09:22:08;102716.91;;;14.55;62.90
59043;BME280;44826;51.596;5.624;2023-05-25T09:24:37;102719.50;;;14.58;62.95
59043;BME280;44826;51.596;5.624;2023-05-25T09:27:05;102723.84;;;14.59;62.68
59043;BME280;44826;51.596;5.624;2023-05-25T09:29:31;102719.44;;;14.63;63.42
59043;BME280;44826;51.596;5.624;2023-05-25T09:31:57;102721.16;;;14.68;63.79
59043;BME280;44826;51.596;5.624;2023-05-25T09:34:22;102725.44;;;14.74;62.33
59043;BME280;44826;51.596;5.624;2023-05-25T09:36:47;102730.63;;;14.79;63.58
59043;BME280;44826;51.596;5.624;2023-05-25T09:39:13;102735.84;;;14.80;62.72
59043;BME280;44826;51.596;5.624;2023-05-25T09:41:42;102734.09;;;14.81;62.40
59043;BME280;44826;51.596;5.624;2023-05-25T09:44:07;102725.31;;;14.85;63.03
59043;BME280;44826;51.596;5.624;2023-05-25T09:46:34;102731.31;;;14.93;61.52
59043;BME280;44826;51.596;5.624;2023-05-25T09:49:02;102732.97;;;15.00;61.82
59043;BME280;44826;51.596;5.624;2023-05-25T09:51:28;102725.88;;;15.07;61.48
59043;BME280;44826;51.596;5.624;2023-05-25T09:53:58;102728.44;;;15.12;61.18
59043;BME280;44826;51.596;5.624;2023-05-25T09:56:23;102724.00;;;15.15;61.40
59043;BME280;44826;51.596;5.624;2023-05-25T09:58:50;102723.13;;;15.15;59.99
59043;BME280;44826;51.596;5.624;2023-05-25T10:01:17;102729.28;;;15.14;60.12
59043;BME280;44826;51.596;5.624;2023-05-25T10:03:45;102731.94;;;15.11;59.70
59043;BME280;44826;51.596;5.624;2023-05-25T10:06:13;102734.63;;;15.06;59.71
59043;BME280;44826;51.596;5.624;2023-05-25T10:08:38;102737.31;;;15.01;60.92
59043;BME280;44826;51.596;5.624;2023-05-25T10:11:04;102741.75;;;14.96;60.49
59043;BME280;44826;51.596;5.624;2023-05-25T10:13:31;102740.91;;;14.94;59.86
59043;BME280;44826;51.596;5.624;2023-05-25T10:15:58;102741.75;;;14.96;59.22
59043;BME280;44826;51.596;5.624;2023-05-25T10:18:25;102738.13;;;15.03;59.78
59043;BME280;44826;51.596;5.624;2023-05-25T10:20:58;102739.75;;;15.12;60.78
59043;BME280;44826;51.596;5.624;2023-05-25T10:23:30;102737.00;;;15.23;60.20
59043;BME280;44826;51.596;5.624;2023-05-25T10:25:59;102734.22;;;15.34;60.42
59043;BME280;44826;51.596;5.624;2023-05-25T10:28:28;102730.56;;;15.44;59.50
59043;BME280;44826;51.596;5.624;2023-05-25T10:30:56;102721.66;;;15.55;58.91
59043;BME280;44826;51.596;5.624;2023-05-25T10:33:22;102726.72;;;15.66;58.65
59043;BME280;44826;51.596;5.624;2023-05-25T10:35:49;102731.75;;;15.78;57.34
59043;BME280;44826;51.596;5.624;2023-05-25T10:38:14;102731.66;;;15.84;57.38
59043;BME280;44826;51.596;5.624;2023-05-25T10:40:43;102736.00;;;15.88;57.92
59043;BME280;44826;51.596;5.624;2023-05-25T10:43:08;102736.88;;;15.87;56.50
59043;BME280;44826;51.596;5.624;2023-05-25T10:45:34;102741.25;;;15.88;57.01
59043;BME280;44826;51.596;5.624;2023-05-25T10:48:00;102735.88;;;15.95;56.61
59043;BME280;44826;51.596;5.624;2023-05-25T10:50:26;102736.66;;;16.00;56.32
59043;BME280;44826;51.596;5.624;2023-05-25T10:52:59;102727.84;;;16.02;57.17
59043;BME280;44826;51.596;5.624;2023-05-25T10:55:26;102725.13;;;16.07;57.88
59043;BME280;44826;51.596;5.624;2023-05-25T10:58:10;102732.16;;;16.06;58.36
59043;BME280;44826;51.596;5.624;2023-05-25T11:00:36;102737.50;;;16.02;56.30
59043;BME280;44826;51.596;5.624;2023-05-25T11:03:01;102732.19;;;16.05;57.04
59043;BME280;44826;51.596;5.624;2023-05-25T11:07:57;102730.78;;;16.32;58.03
59043;BME280;44826;51.596;5.624;2023-05-25T11:13:34;102723.53;;;16.45;58.53
59043;BME280;44826;51.596;5.624;2023-05-25T11:18:52;102725.41;;;16.38;55.44
59043;BME280;44826;51.596;5.624;2023-05-25T11:26:19;102721.09;;;16.36;55.93
59043;BME280;44826;51.596;5.624;2023-05-25T11:28:50;102722.88;;;16.34;57.27
59043;BME280;44826;51.596;5.624;2023-05-25T11:31:18;102714.97;;;16.35;56.82
59043;BME280;44826;51.596;5.624;2023-05-25T11:33:44;102713.06;;;16.42;56.82
59043;BME280;44826;51.596;5.624;2023-05-25T11:36:12;102715.69;;;16.42;56.61
59043;BME280;44826;51.596;5.624;2023-05-25T11:38:41;102713.97;;;16.41;56.51
59043;BME280;44826;51.596;5.624;2023-05-25T11:41:16;102705.34;;;16.36;56.05
59043;BME280;44826;51.596;5.624;2023-05-25T11:43:44;102703.59;;;16.35;56.41
59043;BME280;44826;51.596;5.624;2023-05-25T11:46:09;102697.44;;;16.36;56.48
59043;BME280;44826;51.596;5.624;2023-05-25T11:48:34;102698.19;;;16.41;56.58
59043;BME280;44826;51.596;5.624;2023-05-25T11:51:06;102691.97;;;16.47;55.83
59043;BME280;44826;51.596;5.624;2023-05-25T11:53:31;102694.53;;;16.50;57.31
59043;BME280;44826;51.596;5.624;2023-05-25T11:55:57;102694.50;;;16.51;56.20
59043;BME280;44826;51.596;5.624;2023-05-25T11:58:22;102685.66;;;16.56;56.77
59043;BME280;44826;51.596;5.624;2023-05-25T12:00:47;102686.47;;;16.58;56.19
59043;BME280;44826;51.596;5.624;2023-05-25T12:03:31;102687.25;;;16.63;57.91
59043;BME280;44826;51.596;5.624;2023-05-25T12:05:57;102681.97;;;16.64;55.50
59043;BME280;44826;51.596;5.624;2023-05-25T12:08:35;102671.28;;;16.72;56.40
59043;BME280;44826;51.596;5.624;2023-05-25T12:11:01;102677.16;;;16.83;55.30
59043;BME280;44826;51.596;5.624;2023-05-25T12:13:26;102677.94;;;16.89;54.42
59043;BME280;44826;51.596;5.624;2023-05-25T12:15:55;102668.25;;;16.89;55.50
59043;BME280;44826;51.596;5.624;2023-05-25T12:18:26;102670.91;;;16.89;53.66
59043;BME280;44826;51.596;5.624;2023-05-25T12:20:53;102673.59;;;16.86;54.22
59043;BME280;44826;51.596;5.624;2023-05-25T12:23:18;102667.63;;;16.79;54.10
59043;BME280;44826;51.596;5.624;2023-05-25T12:25:44;102668.50;;;16.80;54.14
59043;BME280;44826;51.596;5.624;2023-05-25T12:28:14;102670.88;;;16.91;54.34
59043;BME280;44826;51.596;5.624;2023-05-25T12:30:40;102670.75;;;16.97;52.83
59043;BME280;44826;51.596;5.624;2023-05-25T12:33:05;102665.44;;;17.00;53.13
59043;BME280;44826;51.596;5.624;2023-05-25T12:35:48;102661.00;;;17.01;54.60
59043;BME280;44826;51.596;5.624;2023-05-25T12:38:17;102662.00;;;16.96;54.63
59043;BME280;44826;51.596;5.624;2023-05-25T12:40:42;102667.31;;;16.92;53.51
59043;BME280;44826;51.596;5.624;2023-05-25T12:43:09;102671.78;;;16.88;54.17
59043;BME280;44826;51.596;5.624;2023-05-25T12:45:41;102676.19;;;16.88;53.28
59043;BME280;44826;51.596;5.624;2023-05-25T12:48:07;102666.59;;;16.87;52.74
59043;BME280;44826;51.596;5.624;2023-05-25T12:50:33;102669.16;;;16.90;52.83
59043;BME280;44826;51.596;5.624;2023-05-25T12:53:02;102662.78;;;17.00;54.53
59043;BME280;44826;51.596;5.624;2023-05-25T12:57:58;102669.47;;;17.15;52.55
59043;BME280;44826;51.596;5.624;2023-05-25T13:00:26;102664.09;;;17.18;53.41
59043;BME280;44826;51.596;5.624;2023-05-25T13:02:52;102665.06;;;17.16;51.99
59043;BME280;44826;51.596;5.624;2023-05-25T13:05:24;102659.94;;;17.09;52.29
59043;BME280;44826;51.596;5.624;2023-05-25T13:07:50;102657.31;;;17.09;53.75
59043;BME280;44826;51.596;5.624;2023-05-25T13:10:16;102659.84;;;17.12;53.98